Strona główna
METAR-TAF:

METAR-TAF

Lotnisko :

Port lotniczy Lille-Lesquin

Lille, Francja

Szerokość geograficzna: 50-34N, Długość geograficzna: 003-06E, wysokość: 48 m

Aktualna obserwacja pogody

Raport powstał 23 minut temu, godzina 01:00 UTC
Wiatr 4 kt od wschód
Temperatura 7°C
Wilgotność 66%
Ciśnienie 1020 hPa
Widzialność 10 km lub więcej
Brak chmur poniżej 1500 m i brak chmur cumulonimbus

METAR: LFQQ 050100Z AUTO 08004KT CAVOK 07/01 Q1020 NOSIG

czas: 03:23 (01:23 UTC)

Prognoza

Raport powstał 2 godziny i 23 minut temu, godzina 23:00 UTC
Prognoza ważna od 05 godzina 00 UTC do 06 godzina 06 UTC
Wiatr 5 kt od wschód
Widzialność 10 km lub więcej
Brak chmur poniżej 1500 m i brak chmur cumulonimbus
Stopniowe zmiany
od 05 godzina 08 UTC do 05 godzina 10 UTC
Wiatr 10 kt od południowo-południowy wschód

TAF: LFQQ 042300Z 0500/0606 09005KT CAVOK BECMG 0508/0510 16010KT

Obserwacja i prognoza pogody dla ponad 4000 lotnisk (raport METAR i TAF).

Dostępne stacje oznaczono żółtymi i czerwonymi punktami na mapie.

Najedź kursorem aby zobaczyć nazwę stacji.

Kliknij aby zobaczyć obserwacje i prognozy pogody.

Aby zmienić mapę: kliknij na zielony przycisk z czarnym krzyżykiem, aby powiększyć; na zielony przycisk z myślnikiem, aby pomniejszyć; na zielone strzałki, aby przejść do map sąsiednich.


METAR-TAF: